sensor_id;sensor_type;location;lat;lon;timestamp;P1;durP1;ratioP1;P2;durP2;ratioP2
11171;SDS011;5642;50.830;12.082;2022-11-11T00:01:55;2.65;;;1.42;;
11171;SDS011;5642;50.830;12.082;2022-11-11T00:04:21;1.63;;;1.50;;
11171;SDS011;5642;50.830;12.082;2022-11-11T00:06:47;1.80;;;1.58;;
11171;SDS011;5642;50.830;12.082;2022-11-11T00:09:13;1.90;;;1.50;;
11171;SDS011;5642;50.830;12.082;2022-11-11T00:11:39;3.40;;;1.88;;
11171;SDS011;5642;50.830;12.082;2022-11-11T00:14:06;2.40;;;1.85;;
11171;SDS011;5642;50.830;12.082;2022-11-11T00:16:32;2.58;;;1.67;;
11171;SDS011;5642;50.830;12.082;2022-11-11T00:19:18;2.65;;;1.60;;
11171;SDS011;5642;50.830;12.082;2022-11-11T00:22:03;1.50;;;1.40;;
11171;SDS011;5642;50.830;12.082;2022-11-11T00:24:47;1.40;;;1.30;;
11171;SDS011;5642;50.830;12.082;2022-11-11T00:27:32;1.83;;;1.23;;
11171;SDS011;5642;50.830;12.082;2022-11-11T00:29:58;1.55;;;1.40;;
11171;SDS011;5642;50.830;12.082;2022-11-11T00:32:24;1.55;;;1.35;;
11171;SDS011;5642;50.830;12.082;2022-11-11T00:34:56;2.22;;;1.60;;
11171;SDS011;5642;50.830;12.082;2022-11-11T00:37:42;2.90;;;1.60;;
11171;SDS011;5642;50.830;12.082;2022-11-11T00:40:09;1.48;;;1.38;;
11171;SDS011;5642;50.830;12.082;2022-11-11T00:42:36;1.63;;;1.48;;
11171;SDS011;5642;50.830;12.082;2022-11-11T00:45:02;1.60;;;1.50;;
11171;SDS011;5642;50.830;12.082;2022-11-11T00:47:29;1.95;;;1.55;;
11171;SDS011;5642;50.830;12.082;2022-11-11T00:50:15;1.98;;;1.27;;
11171;SDS011;5642;50.830;12.082;2022-11-11T00:53:00;1.65;;;1.55;;
11171;SDS011;5642;50.830;12.082;2022-11-11T00:55:29;1.70;;;1.30;;
11171;SDS011;5642;50.830;12.082;2022-11-11T00:57:54;1.40;;;1.30;;
11171;SDS011;5642;50.830;12.082;2022-11-11T01:00:21;1.23;;;1.13;;
11171;SDS011;5642;50.830;12.082;2022-11-11T01:02:47;1.60;;;1.50;;
11171;SDS011;5642;50.830;12.082;2022-11-11T01:05:13;1.20;;;1.10;;
11171;SDS011;5642;50.830;12.082;2022-11-11T01:07:39;1.58;;;1.42;;
11171;SDS011;5642;50.830;12.082;2022-11-11T01:10:05;1.58;;;1.42;;
11171;SDS011;5642;50.830;12.082;2022-11-11T01:12:31;1.63;;;1.20;;
11171;SDS011;5642;50.830;12.082;2022-11-11T01:14:58;2.00;;;1.50;;
11171;SDS011;5642;50.830;12.082;2022-11-11T01:17:24;2.17;;;1.50;;
11171;SDS011;5642;50.830;12.082;2022-11-11T01:19:50;1.50;;;1.40;;
11171;SDS011;5642;50.830;12.082;2022-11-11T01:22:17;1.50;;;1.40;;
11171;SDS011;5642;50.830;12.082;2022-11-11T01:24:43;1.52;;;1.33;;
11171;SDS011;5642;50.830;12.082;2022-11-11T01:27:10;1.38;;;1.27;;
11171;SDS011;5642;50.830;12.082;2022-11-11T01:29:36;1.33;;;1.23;;
11171;SDS011;5642;50.830;12.082;2022-11-11T01:32:03;2.25;;;1.38;;
11171;SDS011;5642;50.830;12.082;2022-11-11T01:34:29;1.60;;;1.30;;
11171;SDS011;5642;50.830;12.082;2022-11-11T01:36:55;1.50;;;1.27;;
11171;SDS011;5642;50.830;12.082;2022-11-11T01:39:21;2.85;;;1.55;;
11171;SDS011;5642;50.830;12.082;2022-11-11T01:41:47;1.92;;;1.40;;
11171;SDS011;5642;50.830;12.082;2022-11-11T01:46:43;1.75;;;1.38;;
11171;SDS011;5642;50.830;12.082;2022-11-11T01:57:11;1.63;;;1.35;;
11171;SDS011;5642;50.830;12.082;2022-11-11T01:59:45;2.25;;;1.42;;
11171;SDS011;5642;50.830;12.082;2022-11-11T02:02:19;1.33;;;1.23;;
11171;SDS011;5642;50.830;12.082;2022-11-11T02:04:50;2.10;;;1.40;;
11171;SDS011;5642;50.830;12.082;2022-11-11T02:07:36;3.00;;;1.27;;
11171;SDS011;5642;50.830;12.082;2022-11-11T02:10:04;1.55;;;1.20;;
11171;SDS011;5642;50.830;12.082;2022-11-11T02:12:33;1.77;;;1.20;;
11171;SDS011;5642;50.830;12.082;2022-11-11T02:15:18;1.85;;;1.15;;
11171;SDS011;5642;50.830;12.082;2022-11-11T02:17:45;3.45;;;1.40;;
11171;SDS011;5642;50.830;12.082;2022-11-11T02:20:15;2.88;;;1.30;;
11171;SDS011;5642;50.830;12.082;2022-11-11T02:22:50;3.10;;;1.50;;
11171;SDS011;5642;50.830;12.082;2022-11-11T02:25:24;1.50;;;1.40;;
11171;SDS011;5642;50.830;12.082;2022-11-11T02:27:56;2.53;;;1.30;;
11171;SDS011;5642;50.830;12.082;2022-11-11T02:30:26;1.00;;;1.00;;
11171;SDS011;5642;50.830;12.082;2022-11-11T02:32:52;2.40;;;1.45;;
11171;SDS011;5642;50.830;12.082;2022-11-11T02:35:36;1.38;;;1.25;;
11171;SDS011;5642;50.830;12.082;2022-11-11T02:38:06;1.30;;;1.20;;
11171;SDS011;5642;50.830;12.082;2022-11-11T02:43:02;1.35;;;1.25;;
11171;SDS011;5642;50.830;12.082;2022-11-11T02:45:29;1.55;;;1.42;;
11171;SDS011;5642;50.830;12.082;2022-11-11T02:47:55;3.50;;;1.60;;
11171;SDS011;5642;50.830;12.082;2022-11-11T02:50:22;2.55;;;1.30;;
11171;SDS011;5642;50.830;12.082;2022-11-11T02:52:48;1.65;;;1.50;;
11171;SDS011;5642;50.830;12.082;2022-11-11T02:55:14;1.55;;;1.30;;
11171;SDS011;5642;50.830;12.082;2022-11-11T02:57:40;1.77;;;1.30;;
11171;SDS011;5642;50.830;12.082;2022-11-11T03:00:07;1.63;;;1.33;;
11171;SDS011;5642;50.830;12.082;2022-11-11T03:02:33;1.52;;;1.15;;
11171;SDS011;5642;50.830;12.082;2022-11-11T03:05:00;1.40;;;1.20;;
11171;SDS011;5642;50.830;12.082;2022-11-11T03:07:26;1.55;;;1.27;;
11171;SDS011;5642;50.830;12.082;2022-11-11T03:09:52;1.75;;;1.40;;
11171;SDS011;5642;50.830;12.082;2022-11-11T03:12:18;2.08;;;1.30;;
11171;SDS011;5642;50.830;12.082;2022-11-11T03:14:43;1.63;;;1.15;;
11171;SDS011;5642;50.830;12.082;2022-11-11T03:17:09;1.35;;;1.25;;
11171;SDS011;5642;50.830;12.082;2022-11-11T03:19:54;1.33;;;1.20;;
11171;SDS011;5642;50.830;12.082;2022-11-11T03:22:40;2.67;;;1.30;;
11171;SDS011;5642;50.830;12.082;2022-11-11T03:25:07;1.23;;;1.10;;
11171;SDS011;5642;50.830;12.082;2022-11-11T03:27:52;1.45;;;1.20;;
11171;SDS011;5642;50.830;12.082;2022-11-11T03:30:18;1.40;;;1.30;;
11171;SDS011;5642;50.830;12.082;2022-11-11T03:32:44;1.55;;;1.30;;
11171;SDS011;5642;50.830;12.082;2022-11-11T03:35:12;1.98;;;1.30;;
11171;SDS011;5642;50.830;12.082;2022-11-11T03:37:38;1.58;;;1.08;;
11171;SDS011;5642;50.830;12.082;2022-11-11T03:40:22;1.25;;;1.13;;
11171;SDS011;5642;50.830;12.082;2022-11-11T03:42:48;2.30;;;1.30;;
11171;SDS011;5642;50.830;12.082;2022-11-11T03:45:15;1.10;;;1.02;;
11171;SDS011;5642;50.830;12.082;2022-11-11T03:47:40;1.30;;;1.17;;
11171;SDS011;5642;50.830;12.082;2022-11-11T03:50:06;1.27;;;1.17;;
11171;SDS011;5642;50.830;12.082;2022-11-11T03:52:33;1.30;;;1.20;;
11171;SDS011;5642;50.830;12.082;2022-11-11T03:54:59;1.90;;;1.30;;
11171;SDS011;5642;50.830;12.082;2022-11-11T03:57:25;1.23;;;1.13;;
11171;SDS011;5642;50.830;12.082;2022-11-11T03:59:57;1.33;;;1.23;;
11171;SDS011;5642;50.830;12.082;2022-11-11T04:02:23;1.35;;;1.25;;
11171;SDS011;5642;50.830;12.082;2022-11-11T04:05:08;1.20;;;1.10;;
11171;SDS011;5642;50.830;12.082;2022-11-11T04:07:52;1.40;;;1.30;;
11171;SDS011;5642;50.830;12.082;2022-11-11T04:10:37;1.25;;;1.20;;
11171;SDS011;5642;50.830;12.082;2022-11-11T04:13:05;1.35;;;1.25;;
11171;SDS011;5642;50.830;12.082;2022-11-11T04:15:50;1.50;;;1.40;;
11171;SDS011;5642;50.830;12.082;2022-11-11T04:18:31;1.42;;;1.20;;
11171;SDS011;5642;50.830;12.082;2022-11-11T04:21:19;1.48;;;1.30;;
11171;SDS011;5642;50.830;12.082;2022-11-11T04:24:04;1.40;;;1.30;;
11171;SDS011;5642;50.830;12.082;2022-11-11T04:26:49;1.85;;;1.55;;
11171;SDS011;5642;50.830;12.082;2022-11-11T04:29:16;2.38;;;1.30;;
11171;SDS011;5642;50.830;12.082;2022-11-11T04:32:01;1.48;;;1.38;;
11171;SDS011;5642;50.830;12.082;2022-11-11T04:35:00;1.60;;;1.30;;
11171;SDS011;5642;50.830;12.082;2022-11-11T04:37:33;1.55;;;1.40;;
11171;SDS011;5642;50.830;12.082;2022-11-11T04:40:18;1.58;;;1.48;;
11171;SDS011;5642;50.830;12.082;2022-11-11T04:43:05;2.33;;;1.20;;
11171;SDS011;5642;50.830;12.082;2022-11-11T04:45:31;1.90;;;1.60;;
11171;SDS011;5642;50.830;12.082;2022-11-11T04:48:02;1.83;;;1.40;;
11171;SDS011;5642;50.830;12.082;2022-11-11T04:50:31;1.65;;;1.40;;
11171;SDS011;5642;50.830;12.082;2022-11-11T04:52:58;2.22;;;1.52;;
11171;SDS011;5642;50.830;12.082;2022-11-11T04:55:25;1.92;;;1.40;;
11171;SDS011;5642;50.830;12.082;2022-11-11T04:58:11;2.70;;;1.30;;
11171;SDS011;5642;50.830;12.082;2022-11-11T05:00:38;1.98;;;1.50;;
11171;SDS011;5642;50.830;12.082;2022-11-11T05:03:04;2.28;;;1.48;;
11171;SDS011;5642;50.830;12.082;2022-11-11T05:05:44;1.95;;;1.40;;
11171;SDS011;5642;50.830;12.082;2022-11-11T05:08:35;3.25;;;1.50;;
11171;SDS011;5642;50.830;12.082;2022-11-11T05:11:24;1.35;;;1.20;;
11171;SDS011;5642;50.830;12.082;2022-11-11T05:13:51;1.40;;;1.30;;
11171;SDS011;5642;50.830;12.082;2022-11-11T05:16:39;1.67;;;1.33;;
11171;SDS011;5642;50.830;12.082;2022-11-11T05:19:26;1.50;;;1.30;;
11171;SDS011;5642;50.830;12.082;2022-11-11T05:22:21;1.88;;;1.35;;
11171;SDS011;5642;50.830;12.082;2022-11-11T05:24:51;1.85;;;1.50;;
11171;SDS011;5642;50.830;12.082;2022-11-11T05:27:38;1.35;;;1.25;;
11171;SDS011;5642;50.830;12.082;2022-11-11T05:30:04;1.67;;;1.58;;
11171;SDS011;5642;50.830;12.082;2022-11-11T05:32:31;1.65;;;1.40;;
11171;SDS011;5642;50.830;12.082;2022-11-11T05:34:58;1.75;;;1.55;;
11171;SDS011;5642;50.830;12.082;2022-11-11T05:37:24;1.45;;;1.30;;
11171;SDS011;5642;50.830;12.082;2022-11-11T05:39:50;3.20;;;1.50;;
11171;SDS011;5642;50.830;12.082;2022-11-11T05:42:17;1.52;;;1.27;;
11171;SDS011;5642;50.830;12.082;2022-11-11T05:44:44;3.28;;;1.20;;
11171;SDS011;5642;50.830;12.082;2022-11-11T05:47:10;2.03;;;1.40;;
11171;SDS011;5642;50.830;12.082;2022-11-11T05:49:36;2.10;;;1.35;;
11171;SDS011;5642;50.830;12.082;2022-11-11T05:52:02;1.77;;;1.50;;
11171;SDS011;5642;50.830;12.082;2022-11-11T05:54:30;2.65;;;1.40;;
11171;SDS011;5642;50.830;12.082;2022-11-11T05:56:56;1.92;;;1.48;;
11171;SDS011;5642;50.830;12.082;2022-11-11T05:59:23;1.40;;;1.30;;
11171;SDS011;5642;50.830;12.082;2022-11-11T06:01:49;1.92;;;1.30;;
11171;SDS011;5642;50.830;12.082;2022-11-11T06:04:15;2.03;;;1.50;;
11171;SDS011;5642;50.830;12.082;2022-11-11T06:06:41;4.65;;;1.48;;
11171;SDS011;5642;50.830;12.082;2022-11-11T06:09:09;2.38;;;1.45;;
11171;SDS011;5642;50.830;12.082;2022-11-11T06:11:36;1.40;;;1.30;;
11171;SDS011;5642;50.830;12.082;2022-11-11T06:14:02;2.25;;;1.45;;
11171;SDS011;5642;50.830;12.082;2022-11-11T06:16:28;1.38;;;1.30;;
11171;SDS011;5642;50.830;12.082;2022-11-11T06:18:54;2.22;;;1.50;;
11171;SDS011;5642;50.830;12.082;2022-11-11T06:21:25;1.92;;;1.48;;
11171;SDS011;5642;50.830;12.082;2022-11-11T06:23:51;1.40;;;1.30;;
11171;SDS011;5642;50.830;12.082;2022-11-11T06:26:17;1.88;;;1.33;;
11171;SDS011;5642;50.830;12.082;2022-11-11T06:28:54;1.52;;;1.38;;
11171;SDS011;5642;50.830;12.082;2022-11-11T06:31:22;1.73;;;1.63;;
11171;SDS011;5642;50.830;12.082;2022-11-11T06:33:49;1.98;;;1.50;;
11171;SDS011;5642;50.830;12.082;2022-11-11T06:36:17;1.80;;;1.70;;
11171;SDS011;5642;50.830;12.082;2022-11-11T06:38:45;2.22;;;1.85;;
11171;SDS011;5642;50.830;12.082;2022-11-11T06:41:12;2.03;;;1.60;;
11171;SDS011;5642;50.830;12.082;2022-11-11T06:43:38;2.78;;;1.90;;
11171;SDS011;5642;50.830;12.082;2022-11-11T06:46:06;2.78;;;1.92;;
11171;SDS011;5642;50.830;12.082;2022-11-11T06:48:48;2.50;;;1.90;;
11171;SDS011;5642;50.830;12.082;2022-11-11T06:51:14;1.55;;;1.45;;
11171;SDS011;5642;50.830;12.082;2022-11-11T06:53:40;1.95;;;1.67;;
11171;SDS011;5642;50.830;12.082;2022-11-11T06:56:07;2.20;;;2.00;;
11171;SDS011;5642;50.830;12.082;2022-11-11T06:58:33;1.98;;;1.77;;
11171;SDS011;5642;50.830;12.082;2022-11-11T07:01:07;3.22;;;2.03;;
11171;SDS011;5642;50.830;12.082;2022-11-11T07:03:51;2.83;;;2.00;;
11171;SDS011;5642;50.830;12.082;2022-11-11T07:06:21;3.38;;;1.67;;
11171;SDS011;5642;50.830;12.082;2022-11-11T07:08:48;2.10;;;1.90;;
11171;SDS011;5642;50.830;12.082;2022-11-11T07:11:14;1.63;;;1.52;;
11171;SDS011;5642;50.830;12.082;2022-11-11T07:13:40;2.17;;;1.65;;
11171;SDS011;5642;50.830;12.082;2022-11-11T07:16:07;1.70;;;1.60;;
11171;SDS011;5642;50.830;12.082;2022-11-11T07:18:37;1.80;;;1.40;;
11171;SDS011;5642;50.830;12.082;2022-11-11T07:21:06;1.77;;;1.40;;
11171;SDS011;5642;50.830;12.082;2022-11-11T07:23:32;2.28;;;1.83;;
11171;SDS011;5642;50.830;12.082;2022-11-11T07:25:59;1.58;;;1.48;;
11171;SDS011;5642;50.830;12.082;2022-11-11T07:28:24;1.50;;;1.40;;
11171;SDS011;5642;50.830;12.082;2022-11-11T07:30:51;1.88;;;1.45;;
11171;SDS011;5642;50.830;12.082;2022-11-11T07:33:17;1.63;;;1.38;;
11171;SDS011;5642;50.830;12.082;2022-11-11T07:35:43;1.83;;;1.40;;
11171;SDS011;5642;50.830;12.082;2022-11-11T07:38:10;1.50;;;1.40;;
11171;SDS011;5642;50.830;12.082;2022-11-11T07:40:36;1.42;;;1.33;;
11171;SDS011;5642;50.830;12.082;2022-11-11T07:43:02;4.35;;;1.48;;
11171;SDS011;5642;50.830;12.082;2022-11-11T07:45:29;3.17;;;1.40;;
11171;SDS011;5642;50.830;12.082;2022-11-11T07:47:55;2.42;;;1.50;;
11171;SDS011;5642;50.830;12.082;2022-11-11T07:50:21;2.15;;;1.50;;
11171;SDS011;5642;50.830;12.082;2022-11-11T07:52:49;2.38;;;1.58;;
11171;SDS011;5642;50.830;12.082;2022-11-11T07:55:15;1.52;;;1.25;;
11171;SDS011;5642;50.830;12.082;2022-11-11T07:57:41;1.45;;;1.30;;
11171;SDS011;5642;50.830;12.082;2022-11-11T08:00:08;1.95;;;1.40;;
11171;SDS011;5642;50.830;12.082;2022-11-11T08:02:35;1.42;;;1.25;;
11171;SDS011;5642;50.830;12.082;2022-11-11T08:05:01;1.83;;;1.30;;
11171;SDS011;5642;50.830;12.082;2022-11-11T08:07:27;1.35;;;1.25;;
11171;SDS011;5642;50.830;12.082;2022-11-11T08:09:53;1.45;;;1.20;;
11171;SDS011;5642;50.830;12.082;2022-11-11T08:12:21;1.30;;;1.20;;
11171;SDS011;5642;50.830;12.082;2022-11-11T08:15:06;2.05;;;1.17;;
11171;SDS011;5642;50.830;12.082;2022-11-11T08:17:36;1.27;;;1.00;;
11171;SDS011;5642;50.830;12.082;2022-11-11T08:20:04;1.27;;;1.17;;
11171;SDS011;5642;50.830;12.082;2022-11-11T08:22:38;1.65;;;1.20;;
11171;SDS011;5642;50.830;12.082;2022-11-11T08:25:06;1.10;;;1.00;;
11171;SDS011;5642;50.830;12.082;2022-11-11T08:27:38;1.67;;;1.02;;
11171;SDS011;5642;50.830;12.082;2022-11-11T08:30:05;0.98;;;0.98;;
11171;SDS011;5642;50.830;12.082;2022-11-11T08:32:33;1.65;;;1.10;;
11171;SDS011;5642;50.830;12.082;2022-11-11T08:34:59;1.23;;;1.05;;
11171;SDS011;5642;50.830;12.082;2022-11-11T08:37:25;1.48;;;1.25;;
11171;SDS011;5642;50.830;12.082;2022-11-11T08:39:52;1.10;;;1.00;;
11171;SDS011;5642;50.830;12.082;2022-11-11T08:42:18;1.05;;;1.00;;
11171;SDS011;5642;50.830;12.082;2022-11-11T08:44:45;3.50;;;1.40;;
11171;SDS011;5642;50.830;12.082;2022-11-11T08:47:12;4.05;;;1.30;;
11171;SDS011;5642;50.830;12.082;2022-11-11T08:49:38;1.20;;;1.10;;
11171;SDS011;5642;50.830;12.082;2022-11-11T08:52:04;1.10;;;1.00;;
11171;SDS011;5642;50.830;12.082;2022-11-11T08:54:31;2.78;;;1.13;;
11171;SDS011;5642;50.830;12.082;2022-11-11T08:56:57;1.30;;;1.10;;
11171;SDS011;5642;50.830;12.082;2022-11-11T08:59:23;1.15;;;0.73;;
11171;SDS011;5642;50.830;12.082;2022-11-11T09:01:50;1.40;;;1.10;;
11171;SDS011;5642;50.830;12.082;2022-11-11T09:04:16;1.15;;;0.90;;
11171;SDS011;5642;50.830;12.082;2022-11-11T09:06:43;1.45;;;1.10;;
11171;SDS011;5642;50.830;12.082;2022-11-11T09:09:10;2.67;;;1.50;;
11171;SDS011;5642;50.830;12.082;2022-11-11T09:11:36;1.63;;;1.15;;
11171;SDS011;5642;50.830;12.082;2022-11-11T09:14:02;1.13;;;1.00;;
11171;SDS011;5642;50.830;12.082;2022-11-11T09:16:28;1.73;;;1.13;;
11171;SDS011;5642;50.830;12.082;2022-11-11T09:18:54;1.35;;;1.10;;
11171;SDS011;5642;50.830;12.082;2022-11-11T09:21:21;0.90;;;0.90;;
11171;SDS011;5642;50.830;12.082;2022-11-11T09:23:48;1.25;;;0.80;;
11171;SDS011;5642;50.830;12.082;2022-11-11T09:26:14;0.82;;;0.82;;
11171;SDS011;5642;50.830;12.082;2022-11-11T09:28:41;0.70;;;0.70;;
11171;SDS011;5642;50.830;12.082;2022-11-11T09:31:09;0.88;;;0.63;;
11171;SDS011;5642;50.830;12.082;2022-11-11T09:33:35;1.48;;;1.08;;
11171;SDS011;5642;50.830;12.082;2022-11-11T09:36:02;1.17;;;1.10;;
11171;SDS011;5642;50.830;12.082;2022-11-11T09:38:28;1.40;;;1.30;;
11171;SDS011;5642;50.830;12.082;2022-11-11T09:41:04;1.40;;;1.30;;
11171;SDS011;5642;50.830;12.082;2022-11-11T09:43:37;1.00;;;1.00;;
11171;SDS011;5642;50.830;12.082;2022-11-11T09:52:00;0.73;;;0.73;;
11171;SDS011;5642;50.830;12.082;2022-11-11T09:57:44;1.17;;;1.08;;
11171;SDS011;5642;50.830;12.082;2022-11-11T10:00:06;2.15;;;0.88;;
11171;SDS011;5642;50.830;12.082;2022-11-11T10:02:42;1.52;;;0.77;;
11171;SDS011;5642;50.830;12.082;2022-11-11T10:05:21;1.10;;;0.90;;
11171;SDS011;5642;50.830;12.082;2022-11-11T10:07:52;0.63;;;0.63;;
11171;SDS011;5642;50.830;12.082;2022-11-11T10:10:26;0.70;;;0.70;;
11171;SDS011;5642;50.830;12.082;2022-11-11T10:12:59;1.42;;;0.60;;
11171;SDS011;5642;50.830;12.082;2022-11-11T10:15:27;0.68;;;0.40;;
11171;SDS011;5642;50.830;12.082;2022-11-11T10:18:10;0.50;;;0.50;;
11171;SDS011;5642;50.830;12.082;2022-11-11T10:20:51;0.63;;;0.40;;
11171;SDS011;5642;50.830;12.082;2022-11-11T10:23:37;0.43;;;0.40;;
11171;SDS011;5642;50.830;12.082;2022-11-11T10:26:11;0.45;;;0.43;;
11171;SDS011;5642;50.830;12.082;2022-11-11T10:28:43;0.50;;;0.50;;
11171;SDS011;5642;50.830;12.082;2022-11-11T10:31:17;0.50;;;0.50;;
11171;SDS011;5642;50.830;12.082;2022-11-11T10:33:50;1.38;;;0.70;;
11171;SDS011;5642;50.830;12.082;2022-11-11T10:36:43;1.15;;;0.60;;
11171;SDS011;5642;50.830;12.082;2022-11-11T10:39:15;0.68;;;0.50;;
11171;SDS011;5642;50.830;12.082;2022-11-11T10:41:48;0.32;;;0.32;;
11171;SDS011;5642;50.830;12.082;2022-11-11T10:44:24;0.50;;;0.50;;
11171;SDS011;5642;50.830;12.082;2022-11-11T10:46:54;0.85;;;0.45;;
11171;SDS011;5642;50.830;12.082;2022-11-11T10:49:49;0.60;;;0.60;;
11171;SDS011;5642;50.830;12.082;2022-11-11T10:52:30;0.47;;;0.47;;
11171;SDS011;5642;50.830;12.082;2022-11-11T10:58:05;0.40;;;0.40;;
11171;SDS011;5642;50.830;12.082;2022-11-11T11:00:36;0.40;;;0.28;;
11171;SDS011;5642;50.830;12.082;2022-11-11T11:09:02;0.47;;;0.47;;
11171;SDS011;5642;50.830;12.082;2022-11-11T11:11:12;0.50;;;0.50;;
11171;SDS011;5642;50.830;12.082;2022-11-11T11:13:46;0.43;;;0.43;;
11171;SDS011;5642;50.830;12.082;2022-11-11T11:16:17;0.60;;;0.60;;
11171;SDS011;5642;50.830;12.082;2022-11-11T11:19:32;0.50;;;0.50;;
11171;SDS011;5642;50.830;12.082;2022-11-11T11:22:00;0.60;;;0.60;;
11171;SDS011;5642;50.830;12.082;2022-11-11T11:26:55;0.50;;;0.50;;
11171;SDS011;5642;50.830;12.082;2022-11-11T11:29:32;0.50;;;0.50;;
11171;SDS011;5642;50.830;12.082;2022-11-11T11:34:45;0.35;;;0.35;;
11171;SDS011;5642;50.830;12.082;2022-11-11T11:37:13;0.77;;;0.47;;
11171;SDS011;5642;50.830;12.082;2022-11-11T11:39:40;0.80;;;0.52;;
11171;SDS011;5642;50.830;12.082;2022-11-11T11:42:07;0.50;;;0.50;;
11171;SDS011;5642;50.830;12.082;2022-11-11T11:44:35;0.40;;;0.40;;
11171;SDS011;5642;50.830;12.082;2022-11-11T11:52:49;0.50;;;0.50;;
11171;SDS011;5642;50.830;12.082;2022-11-11T11:55:59;0.50;;;0.50;;
11171;SDS011;5642;50.830;12.082;2022-11-11T12:01:23;0.50;;;0.50;;
11171;SDS011;5642;50.830;12.082;2022-11-11T12:15:23;0.40;;;0.40;;
11171;SDS011;5642;50.830;12.082;2022-11-11T12:20:51;0.45;;;0.40;;
11171;SDS011;5642;50.830;12.082;2022-11-11T12:26:12;0.80;;;0.50;;
11171;SDS011;5642;50.830;12.082;2022-11-11T12:46:11;0.45;;;0.45;;
11171;SDS011;5642;50.830;12.082;2022-11-11T12:52:22;0.50;;;0.50;;
11171;SDS011;5642;50.830;12.082;2022-11-11T12:55:43;0.88;;;0.52;;
11171;SDS011;5642;50.830;12.082;2022-11-11T12:58:37;0.52;;;0.50;;
11171;SDS011;5642;50.830;12.082;2022-11-11T13:01:23;1.55;;;0.50;;
11171;SDS011;5642;50.830;12.082;2022-11-11T13:07:06;0.32;;;0.32;;
11171;SDS011;5642;50.830;12.082;2022-11-11T13:15:39;0.50;;;0.50;;
11171;SDS011;5642;50.830;12.082;2022-11-11T13:18:17;0.38;;;0.38;;
11171;SDS011;5642;50.830;12.082;2022-11-11T13:23:29;0.45;;;0.45;;
11171;SDS011;5642;50.830;12.082;2022-11-11T13:25:56;0.40;;;0.40;;
11171;SDS011;5642;50.830;12.082;2022-11-11T13:33:50;0.50;;;0.50;;
11171;SDS011;5642;50.830;12.082;2022-11-11T13:36:22;0.57;;;0.40;;
11171;SDS011;5642;50.830;12.082;2022-11-11T13:38:53;0.45;;;0.40;;
11171;SDS011;5642;50.830;12.082;2022-11-11T13:41:24;0.90;;;0.60;;
11171;SDS011;5642;50.830;12.082;2022-11-11T13:43:54;0.50;;;0.50;;
11171;SDS011;5642;50.830;12.082;2022-11-11T13:48:53;0.63;;;0.63;;
11171;SDS011;5642;50.830;12.082;2022-11-11T13:51:36;0.55;;;0.55;;
11171;SDS011;5642;50.830;12.082;2022-11-11T13:54:27;0.57;;;0.57;;
11171;SDS011;5642;50.830;12.082;2022-11-11T13:57:14;0.57;;;0.50;;
11171;SDS011;5642;50.830;12.082;2022-11-11T13:59:52;0.70;;;0.70;;
11171;SDS011;5642;50.830;12.082;2022-11-11T14:05:31;0.68;;;0.68;;
11171;SDS011;5642;50.830;12.082;2022-11-11T14:12:46;0.80;;;0.80;;
11171;SDS011;5642;50.830;12.082;2022-11-11T14:15:33;0.70;;;0.70;;
11171;SDS011;5642;50.830;12.082;2022-11-11T14:20:44;0.70;;;0.70;;
11171;SDS011;5642;50.830;12.082;2022-11-11T14:30:57;0.73;;;0.73;;
11171;SDS011;5642;50.830;12.082;2022-11-11T14:41:54;0.60;;;0.60;;
11171;SDS011;5642;50.830;12.082;2022-11-11T14:57:35;1.10;;;1.10;;
11171;SDS011;5642;50.830;12.082;2022-11-11T15:00:09;1.10;;;1.00;;
11171;SDS011;5642;50.830;12.082;2022-11-11T15:03:02;0.90;;;0.90;;
11171;SDS011;5642;50.830;12.082;2022-11-11T15:14:09;1.15;;;1.10;;
11171;SDS011;5642;50.830;12.082;2022-11-11T15:16:57;0.90;;;0.90;;
11171;SDS011;5642;50.830;12.082;2022-11-11T15:26:09;0.77;;;0.77;;
11171;SDS011;5642;50.830;12.082;2022-11-11T15:29:45;0.80;;;0.80;;
11171;SDS011;5642;50.830;12.082;2022-11-11T15:37:24;1.73;;;1.00;;
11171;SDS011;5642;50.830;12.082;2022-11-11T15:39:52;1.50;;;0.95;;
11171;SDS011;5642;50.830;12.082;2022-11-11T15:45:00;1.58;;;0.90;;
11171;SDS011;5642;50.830;12.082;2022-11-11T15:47:34;1.90;;;1.50;;
11171;SDS011;5642;50.830;12.082;2022-11-11T15:50:01;1.60;;;1.50;;
11171;SDS011;5642;50.830;12.082;2022-11-11T15:52:29;2.20;;;1.48;;
11171;SDS011;5642;50.830;12.082;2022-11-11T15:55:00;1.33;;;1.23;;
11171;SDS011;5642;50.830;12.082;2022-11-11T15:57:43;1.40;;;1.30;;
11171;SDS011;5642;50.830;12.082;2022-11-11T16:02:52;1.27;;;1.10;;
11171;SDS011;5642;50.830;12.082;2022-11-11T16:05:24;1.30;;;1.20;;
11171;SDS011;5642;50.830;12.082;2022-11-11T16:07:53;1.77;;;1.67;;
11171;SDS011;5642;50.830;12.082;2022-11-11T16:10:27;1.77;;;1.50;;
11171;SDS011;5642;50.830;12.082;2022-11-11T16:12:59;1.70;;;1.60;;
11171;SDS011;5642;50.830;12.082;2022-11-11T16:18:19;1.35;;;1.23;;
11171;SDS011;5642;50.830;12.082;2022-11-11T16:23:39;2.47;;;2.28;;
11171;SDS011;5642;50.830;12.082;2022-11-11T16:26:06;3.00;;;2.70;;
11171;SDS011;5642;50.830;12.082;2022-11-11T16:28:37;2.63;;;2.42;;
11171;SDS011;5642;50.830;12.082;2022-11-11T16:31:19;2.30;;;2.03;;
11171;SDS011;5642;50.830;12.082;2022-11-11T16:33:47;2.47;;;2.03;;
11171;SDS011;5642;50.830;12.082;2022-11-11T16:36:13;1.70;;;1.60;;
11171;SDS011;5642;50.830;12.082;2022-11-11T16:38:40;2.20;;;1.58;;
11171;SDS011;5642;50.830;12.082;2022-11-11T16:41:23;1.90;;;1.80;;
11171;SDS011;5642;50.830;12.082;2022-11-11T16:43:51;1.60;;;1.50;;
11171;SDS011;5642;50.830;12.082;2022-11-11T16:49:15;1.40;;;1.30;;
11171;SDS011;5642;50.830;12.082;2022-11-11T16:51:46;1.77;;;1.30;;
11171;SDS011;5642;50.830;12.082;2022-11-11T16:56:47;2.35;;;1.77;;
11171;SDS011;5642;50.830;12.082;2022-11-11T16:59:32;2.03;;;1.92;;
11171;SDS011;5642;50.830;12.082;2022-11-11T17:02:02;1.60;;;1.50;;
11171;SDS011;5642;50.830;12.082;2022-11-11T17:07:30;1.70;;;1.60;;
11171;SDS011;5642;50.830;12.082;2022-11-11T17:12:35;1.88;;;1.58;;
11171;SDS011;5642;50.830;12.082;2022-11-11T17:15:03;1.73;;;1.63;;
11171;SDS011;5642;50.830;12.082;2022-11-11T17:17:30;1.85;;;1.58;;
11171;SDS011;5642;50.830;12.082;2022-11-11T17:19:57;2.33;;;1.70;;
11171;SDS011;5642;50.830;12.082;2022-11-11T17:22:26;1.77;;;1.67;;
11171;SDS011;5642;50.830;12.082;2022-11-11T17:24:54;1.80;;;1.50;;
11171;SDS011;5642;50.830;12.082;2022-11-11T17:27:20;1.90;;;1.60;;
11171;SDS011;5642;50.830;12.082;2022-11-11T17:29:46;2.90;;;1.73;;
11171;SDS011;5642;50.830;12.082;2022-11-11T17:32:13;1.90;;;1.65;;
11171;SDS011;5642;50.830;12.082;2022-11-11T17:34:39;2.03;;;1.67;;
11171;SDS011;5642;50.830;12.082;2022-11-11T17:37:06;2.50;;;2.30;;
11171;SDS011;5642;50.830;12.082;2022-11-11T17:39:32;4.30;;;3.20;;
11171;SDS011;5642;50.830;12.082;2022-11-11T17:41:57;4.07;;;3.67;;
11171;SDS011;5642;50.830;12.082;2022-11-11T17:44:23;5.68;;;3.88;;
11171;SDS011;5642;50.830;12.082;2022-11-11T17:46:50;9.98;;;7.85;;
11171;SDS011;5642;50.830;12.082;2022-11-11T17:49:17;8.20;;;5.88;;
11171;SDS011;5642;50.830;12.082;2022-11-11T17:51:43;6.70;;;4.88;;
11171;SDS011;5642;50.830;12.082;2022-11-11T17:54:09;6.03;;;4.53;;
11171;SDS011;5642;50.830;12.082;2022-11-11T17:56:36;6.35;;;3.75;;
11171;SDS011;5642;50.830;12.082;2022-11-11T17:59:03;4.10;;;3.60;;
11171;SDS011;5642;50.830;12.082;2022-11-11T18:01:32;3.67;;;3.35;;
11171;SDS011;5642;50.830;12.082;2022-11-11T18:03:59;4.20;;;3.40;;
11171;SDS011;5642;50.830;12.082;2022-11-11T18:06:29;4.13;;;3.60;;
11171;SDS011;5642;50.830;12.082;2022-11-11T18:08:57;4.57;;;3.03;;
11171;SDS011;5642;50.830;12.082;2022-11-11T18:11:24;3.88;;;3.08;;
11171;SDS011;5642;50.830;12.082;2022-11-11T18:13:51;3.53;;;2.58;;
11171;SDS011;5642;50.830;12.082;2022-11-11T18:16:17;3.30;;;2.83;;
11171;SDS011;5642;50.830;12.082;2022-11-11T18:18:45;3.10;;;2.80;;